createdAt,value
2018-09-19T00:00:02.904Z,16.2
2018-09-19T00:15:03.225Z,16.2
2018-09-19T00:30:02.607Z,16.2
2018-09-19T00:45:02.972Z,16.2
2018-09-19T01:00:02.288Z,16.1
2018-09-19T01:15:02.613Z,16.1
2018-09-19T01:30:03.113Z,16.1
2018-09-19T01:45:02.434Z,16
2018-09-19T02:00:03.488Z,16
2018-09-19T02:15:02.854Z,15.9
2018-09-19T02:30:03.287Z,15.9
2018-09-19T02:45:02.585Z,15.9
2018-09-19T03:00:02.991Z,15.9
2018-09-19T03:15:02.302Z,15.8
2018-09-19T03:30:02.713Z,15.8
2018-09-19T03:45:03.092Z,15.8
2018-09-19T04:00:02.411Z,15.7
2018-09-19T04:15:02.797Z,15.7
2018-09-19T04:30:03.198Z,15.6
2018-09-19T04:45:02.489Z,15.6
2018-09-19T05:00:02.828Z,15.6
2018-09-19T05:15:03.202Z,15.5
2018-09-19T05:30:02.579Z,15.4
2018-09-19T05:45:02.992Z,15.4
2018-09-19T06:00:02.332Z,15.4
2018-09-19T06:15:02.686Z,15.4
2018-09-19T06:30:03.168Z,15.3
2018-09-19T06:45:02.520Z,15.3
2018-09-19T07:00:02.827Z,15.3
2018-09-19T07:15:03.135Z,15.3
2018-09-19T07:30:02.531Z,15.2
2018-09-19T07:45:02.842Z,15.2
2018-09-19T08:00:03.181Z,15.2
2018-09-19T08:15:02.598Z,15.2
2018-09-19T08:30:03.014Z,15.2
2018-09-19T08:45:02.334Z,15.2
2018-09-19T09:00:02.681Z,15.3
2018-09-19T09:15:02.983Z,15.4
2018-09-19T09:30:02.384Z,15.4
2018-09-19T09:45:02.718Z,15.4
2018-09-19T10:00:03.471Z,15.5
2018-09-19T10:15:02.847Z,15.5
2018-09-19T10:30:03.269Z,15.6
2018-09-19T10:45:02.655Z,15.6
2018-09-19T11:00:02.981Z,15.8
2018-09-19T11:15:02.315Z,15.8
2018-09-19T11:30:02.694Z,15.9
2018-09-19T11:45:03.016Z,15.9
2018-09-19T12:00:02.372Z,16
2018-09-19T12:15:02.704Z,16.1
2018-09-19T12:30:03.120Z,16.1
2018-09-19T12:45:02.405Z,16.2
2018-09-19T13:00:03.536Z,16.2
2018-09-19T13:15:02.850Z,16.3
2018-09-19T13:30:03.198Z,16.4
2018-09-19T13:45:02.564Z,16.4
2018-09-19T14:00:02.923Z,16.4
2018-09-19T14:15:03.195Z,16.5
2018-09-19T14:30:02.597Z,16.6
2018-09-19T14:45:02.971Z,16.6
2018-09-19T15:00:02.305Z,16.6
2018-09-19T15:15:02.649Z,16.6
2018-09-19T15:30:02.828Z,16.7
2018-09-19T15:45:03.131Z,16.7
2018-09-19T16:00:02.436Z,16.7
2018-09-19T16:15:02.741Z,16.8
2018-09-19T16:30:03.125Z,16.8
2018-09-19T16:45:02.479Z,16.8
2018-09-19T17:00:02.834Z,16.8
2018-09-19T17:15:03.191Z,16.8
2018-09-19T17:30:02.582Z,16.8
2018-09-19T17:45:02.903Z,16.8
2018-09-19T18:00:03.199Z,16.8
2018-09-19T18:15:02.656Z,16.8
2018-09-19T18:30:03.114Z,16.8
2018-09-19T18:45:02.429Z,16.8
2018-09-19T19:00:02.695Z,16.8
2018-09-19T19:15:03.022Z,16.8
2018-09-19T19:30:02.420Z,16.8
2018-09-19T19:45:02.739Z,16.7
2018-09-19T20:00:03.084Z,16.7
2018-09-19T20:15:02.417Z,16.7
2018-09-19T20:30:02.863Z,16.7
2018-09-19T20:45:03.418Z,16.7
2018-09-19T21:00:02.738Z,16.7
2018-09-19T21:15:03.604Z,16.6
2018-09-19T21:30:02.996Z,16.6
2018-09-19T21:45:02.323Z,16.6
2018-09-19T22:00:02.732Z,16.6
2018-09-19T22:15:03.090Z,16.5
2018-09-19T22:30:02.517Z,16.5
2018-09-19T22:45:02.800Z,16.4
2018-09-19T23:00:03.128Z,16.4
2018-09-19T23:15:02.426Z,16.3
2018-09-19T23:30:02.840Z,16.3
2018-09-19T23:45:03.195Z,16.2
